Aérodrome :
LOGIN :

S'inscrire | Disclaimer

   EN    FR    IT 

 










Légende :    VFR   VFR Marginal   IFR   IFR Intensif   IFR Très Intensif
Visi : 
Plafond : 
>= 8 km
>= 3000ft
5 à 8 km
1000 à 3000 ft
1500m à 5 km
500 à 1000 ft
800 à 1500m
200 à 500 ft
< 800m
< 200 ft
Symboles :   Orages  Brouillard  Fortes neiges  Fortes précipitations  Vent > 20 kt
SIGMETs :   Divers  Orages  Givrage  Turbulence  Onde Orograph.  Cendres Volcan.







- Altitude de l'aérodrome : 600 ft
- Code IATA : VIE


LOWW - Vienna Schwechat

DERNIER METAR :
  • 170720Z 30020KT CAVOK 23/14 Q1010 NOSIG

METARs EXPIRÉS :
  • 170650Z 30014KT CAVOK 22/14 Q1010 NOSIG
  • 170620Z 30013KT CAVOK 22/14 Q1010 NOSIG
  • 170550Z 30015KT CAVOK 21/14 Q1010 NOSIG
  • 170520Z 30010KT CAVOK 20/14 Q1011 NOSIG
  • 170450Z 29010KT CAVOK 20/14 Q1010 NOSIG

TAF TAF LOWW
Valide du 17 à 06h jusqu'au 18 à 12h UTC


170515Z 1706/1812 29013KT CAVOK TX28/1712Z TN20/1802Z
BECMG 1706/1708 30015G25KT 9999 SCT050 FEW050TCU
BECMG 1713/1715 33020G30KT CAVOK
BECMG 1717/1719 29012KT
BECMG 1806/1808 33023KT
Pas de NOTAMs connus pour ce terrain.



MET'MAP, la Météo Aéronautique d'un coup d'oeil ! - Copyright ORBIFLY Décembre 2007 - Disclaimer

ORBIFLY MET'MAP TEAM :

Programmation & Développement : Alexandra Zaïnal
Conception & Développement : Baudouin d'Aumeries
Co-Programmation & Développement : Marc-Olivier Méhu
Soutien technique & logistique : Manuel Goepfert

Contact : metmap@orbifly.com




SOURCES & CREDITS :

   NOAA